createdAt,value
2023-04-19T00:00:52.560Z,94.74
2023-04-19T00:01:55.679Z,95.11
2023-04-19T00:02:57.774Z,95.12
2023-04-19T00:04:00.903Z,94.71
2023-04-19T00:05:03.030Z,94.34
2023-04-19T00:06:08.306Z,94.48
2023-04-19T00:07:10.147Z,94.69
2023-04-19T00:08:13.022Z,94.52
2023-04-19T00:09:16.174Z,94.39
2023-04-19T00:10:19.150Z,94.73
2023-04-19T00:11:21.234Z,95.13
2023-04-19T00:12:24.592Z,95.32
2023-04-19T00:13:26.377Z,95.39
2023-04-19T00:14:29.297Z,95.27
2023-04-19T00:15:31.167Z,94.68
2023-04-19T00:16:33.996Z,94.94
2023-04-19T00:17:36.280Z,94.85
2023-04-19T00:18:39.549Z,95.05
2023-04-19T00:19:41.845Z,95.19
2023-04-19T00:20:45.440Z,95.40
2023-04-19T00:21:47.444Z,95.64
2023-04-19T00:22:50.233Z,95.59
2023-04-19T00:23:54.001Z,95.54
2023-04-19T00:24:58.147Z,95.73
2023-04-19T00:26:02.689Z,95.86
2023-04-19T00:27:05.974Z,95.58
2023-04-19T00:28:07.877Z,95.48
2023-04-19T00:29:11.106Z,95.59
2023-04-19T00:30:14.197Z,95.12
2023-04-19T00:31:17.055Z,95.15
2023-04-19T00:32:18.889Z,95.10
2023-04-19T00:33:22.777Z,95.73
2023-04-19T00:34:27.762Z,95.35
2023-04-19T00:35:31.635Z,95.14
2023-04-19T00:36:33.546Z,95.05
2023-04-19T00:37:36.348Z,94.91
2023-04-19T00:38:39.493Z,95.27
2023-04-19T00:39:42.353Z,95.12
2023-04-19T00:40:46.645Z,95.32
2023-04-19T00:41:49.429Z,94.84
2023-04-19T00:42:53.578Z,94.74
2023-04-19T00:43:56.409Z,95.14
2023-04-19T00:44:58.229Z,94.78
2023-04-19T00:46:01.590Z,95.07
2023-04-19T00:47:03.585Z,95.02
2023-04-19T00:48:06.662Z,95.08
2023-04-19T00:49:09.669Z,94.89
2023-04-19T00:50:13.269Z,94.83
2023-04-19T00:51:15.627Z,94.97
2023-04-19T00:52:19.816Z,95.11
2023-04-19T00:53:21.621Z,95.23
2023-04-19T00:54:24.727Z,95.04
2023-04-19T00:55:26.732Z,95.47
2023-04-19T00:56:31.040Z,95.48
2023-04-19T00:57:33.005Z,95.17
2023-04-19T00:58:36.411Z,95.38
2023-04-19T00:59:39.080Z,95.42
2023-04-19T01:00:42.135Z,95.72
2023-04-19T01:01:44.037Z,96.04
2023-04-19T01:02:47.432Z,95.99
2023-04-19T01:03:49.590Z,96.23
2023-04-19T01:04:52.783Z,96.09
2023-04-19T01:05:54.942Z,96.01
2023-04-19T01:06:57.882Z,96.36
2023-04-19T01:08:00.025Z,96.28
2023-04-19T01:09:02.898Z,95.97
2023-04-19T01:10:06.063Z,96.15
2023-04-19T01:11:09.129Z,96.25
2023-04-19T01:12:13.348Z,96.41
2023-04-19T01:13:18.960Z,96.36
2023-04-19T01:14:20.872Z,96.87
2023-04-19T01:15:23.677Z,96.34
2023-04-19T01:16:26.616Z,96.64
2023-04-19T01:17:30.690Z,96.46
2023-04-19T01:18:37.389Z,96.28
2023-04-19T01:19:41.001Z,96.49
2023-04-19T01:20:43.137Z,96.24
2023-04-19T01:21:46.333Z,96.41
2023-04-19T01:22:49.545Z,96.20
2023-04-19T01:23:53.175Z,96.17
2023-04-19T01:24:54.997Z,96.11
2023-04-19T01:25:57.970Z,96.07
2023-04-19T01:27:00.983Z,96.30
2023-04-19T01:28:04.255Z,96.19
2023-04-19T01:29:06.070Z,96.16
2023-04-19T01:30:10.444Z,96.14
2023-04-19T01:31:12.336Z,96.41
2023-04-19T01:32:15.163Z,96.25
2023-04-19T01:33:17.456Z,95.96
2023-04-19T01:34:20.314Z,96.18
2023-04-19T01:35:22.114Z,96.13
2023-04-19T01:36:24.984Z,95.87
2023-04-19T01:37:26.806Z,95.84
2023-04-19T01:38:31.039Z,96.20
2023-04-19T01:39:33.278Z,95.63
2023-04-19T01:40:36.731Z,95.90
2023-04-19T01:41:39.900Z,96.12
2023-04-19T01:42:43.082Z,95.93
2023-04-19T01:43:44.937Z,95.88
2023-04-19T01:44:47.690Z,95.88
2023-04-19T01:45:49.554Z,96.01
2023-04-19T01:46:52.571Z,96.13
2023-04-19T01:47:55.968Z,96.23
2023-04-19T01:48:58.809Z,96.27
2023-04-19T01:50:00.749Z,96.23
2023-04-19T01:51:03.581Z,96.31
2023-04-19T01:52:05.616Z,96.66
2023-04-19T01:53:08.366Z,95.98
2023-04-19T01:54:11.535Z,96.15
2023-04-19T01:55:14.430Z,96.23
2023-04-19T01:56:16.221Z,96.22
2023-04-19T01:57:19.790Z,96.57
2023-04-19T01:58:22.665Z,96.41
2023-04-19T01:59:25.542Z,96.75
2023-04-19T02:00:27.326Z,96.65
2023-04-19T02:01:30.434Z,96.75
2023-04-19T02:02:33.668Z,97.02
2023-04-19T02:03:37.077Z,96.66
2023-04-19T02:04:39.359Z,96.78
2023-04-19T02:05:42.355Z,96.72
2023-04-19T02:06:44.182Z,96.35
2023-04-19T02:07:47.067Z,96.31
2023-04-19T02:08:48.885Z,96.83
2023-04-19T02:09:53.010Z,96.77
2023-04-19T02:10:54.945Z,96.96
2023-04-19T02:11:57.723Z,96.78
2023-04-19T02:12:59.575Z,96.72
2023-04-19T02:14:03.776Z,97.04
2023-04-19T02:15:06.848Z,96.93
2023-04-19T02:16:12.729Z,96.89
2023-04-19T02:17:14.671Z,96.69
2023-04-19T02:18:17.539Z,96.87
2023-04-19T02:19:19.337Z,96.82
2023-04-19T02:20:22.125Z,96.79
2023-04-19T02:21:24.255Z,97.15
2023-04-19T02:22:27.029Z,97.38
2023-04-19T02:23:29.521Z,97.08
2023-04-19T02:24:32.327Z,96.97
2023-04-19T02:25:35.554Z,96.87
2023-04-19T02:26:38.424Z,97.04
2023-04-19T02:27:40.277Z,97.11
2023-04-19T02:28:43.113Z,97.08
2023-04-19T02:29:45.414Z,97.28
2023-04-19T02:30:48.264Z,96.93
2023-04-19T02:31:50.498Z,96.95
2023-04-19T02:32:54.900Z,97.07
2023-04-19T02:33:56.856Z,96.72
2023-04-19T02:34:59.652Z,96.99
2023-04-19T02:36:01.509Z,96.71
2023-04-19T02:37:04.493Z,96.74
2023-04-19T02:38:06.421Z,96.63
2023-04-19T02:39:09.503Z,97.01
2023-04-19T02:40:13.382Z,96.86
2023-04-19T02:41:17.513Z,96.96
2023-04-19T02:42:19.402Z,96.99
2023-04-19T02:43:22.207Z,97.08
2023-04-19T02:44:24.536Z,97.07
2023-04-19T02:45:27.695Z,97.08
2023-04-19T02:46:30.075Z,96.95
2023-04-19T02:47:33.046Z,96.74
2023-04-19T02:48:34.925Z,96.99
2023-04-19T02:49:41.625Z,97.12
2023-04-19T02:50:44.745Z,96.86
2023-04-19T02:51:48.411Z,97.00
2023-04-19T02:52:50.211Z,96.89
2023-04-19T02:53:53.782Z,96.71
2023-04-19T02:54:56.093Z,97.00
2023-04-19T02:55:59.060Z,97.15
2023-04-19T02:57:02.348Z,96.70
2023-04-19T02:58:05.166Z,96.82
2023-04-19T02:59:10.567Z,96.82
2023-04-19T03:00:14.286Z,96.83
2023-04-19T03:01:23.400Z,96.97
2023-04-19T03:02:26.545Z,97.08
2023-04-19T03:03:28.682Z,96.99
2023-04-19T03:04:32.263Z,97.08
2023-04-19T03:05:34.150Z,97.24
2023-04-19T03:06:37.771Z,97.18
2023-04-19T03:07:41.500Z,97.32
2023-04-19T03:08:46.330Z,97.27
2023-04-19T03:09:48.304Z,97.26
2023-04-19T03:10:51.142Z,97.44
2023-04-19T03:11:53.252Z,97.36
2023-04-19T03:12:57.418Z,96.97
2023-04-19T03:13:59.358Z,97.48
2023-04-19T03:15:02.173Z,97.19
2023-04-19T03:16:04.428Z,96.97
2023-04-19T03:17:08.293Z,97.11
2023-04-19T03:18:12.228Z,97.52
2023-04-19T03:19:17.848Z,97.32
2023-04-19T03:20:24.024Z,97.16
2023-04-19T03:21:29.146Z,97.22
2023-04-19T03:22:31.323Z,96.65
2023-04-19T03:23:34.147Z,96.89
2023-04-19T03:24:38.125Z,97.02
2023-04-19T03:26:01.345Z,97.05
2023-04-19T03:27:23.478Z,97.58
2023-04-19T03:28:33.465Z,97.48
2023-04-19T03:29:49.092Z,97.58
2023-04-19T03:30:51.173Z,97.72
2023-04-19T03:31:54.473Z,97.48
2023-04-19T03:32:56.696Z,97.79
2023-04-19T03:33:59.748Z,97.48
2023-04-19T03:35:07.728Z,97.56
2023-04-19T03:36:10.702Z,97.19
2023-04-19T03:37:16.521Z,97.70
2023-04-19T03:38:19.339Z,97.95
2023-04-19T03:39:21.482Z,97.86
2023-04-19T03:40:27.370Z,97.89
2023-04-19T03:41:29.272Z,97.66
2023-04-19T03:42:45.319Z,97.82
2023-04-19T03:43:55.949Z,97.50
2023-04-19T03:45:00.429Z,97.61
2023-04-19T03:46:03.976Z,97.62
2023-04-19T03:47:07.013Z,97.55
2023-04-19T03:48:15.443Z,97.69
2023-04-19T03:49:18.386Z,97.53
2023-04-19T03:50:25.375Z,97.78
2023-04-19T03:51:31.537Z,97.71
2023-04-19T03:52:33.783Z,97.75
2023-04-19T03:53:38.208Z,97.49
2023-04-19T03:54:40.037Z,97.83
2023-04-19T03:55:49.020Z,97.61
2023-04-19T03:56:51.599Z,97.85
2023-04-19T03:57:54.771Z,97.80
2023-04-19T03:59:11.045Z,97.84
2023-04-19T04:00:16.608Z,98.01
2023-04-19T04:01:18.973Z,97.83
2023-04-19T04:02:22.343Z,97.93
2023-04-19T04:03:24.658Z,97.60
2023-04-19T04:04:28.042Z,98.09
2023-04-19T04:05:30.420Z,97.87
2023-04-19T04:06:33.193Z,98.05
2023-04-19T04:07:35.061Z,97.79
2023-04-19T04:08:38.853Z,97.80
2023-04-19T04:09:40.762Z,97.81
2023-04-19T04:10:43.578Z,97.19
2023-04-19T04:11:46.032Z,97.62
2023-04-19T04:12:48.952Z,97.73
2023-04-19T04:13:57.928Z,98.56
2023-04-19T04:15:10.112Z,98.83
2023-04-19T04:16:17.161Z,99.00
2023-04-19T04:17:20.203Z,99.23
2023-04-19T04:18:22.200Z,99.05
2023-04-19T04:19:25.793Z,99.01
2023-04-19T04:20:27.648Z,99.54
2023-04-19T04:21:37.187Z,100.00
2023-04-19T04:22:42.219Z,100.00
2023-04-19T04:23:47.185Z,100.00
2023-04-19T04:24:58.176Z,99.97
2023-04-19T04:26:09.911Z,100.00
2023-04-19T04:27:30.343Z,100.00
2023-04-19T04:28:33.492Z,100.00
2023-04-19T04:29:36.780Z,100.00
2023-04-19T04:30:43.100Z,100.00
2023-04-19T04:31:46.969Z,100.00
2023-04-19T04:32:53.051Z,100.00
2023-04-19T04:33:55.300Z,100.00
2023-04-19T04:34:58.265Z,100.00
2023-04-19T04:36:11.966Z,100.00
2023-04-19T04:37:16.222Z,100.00
2023-04-19T04:38:24.505Z,100.00
2023-04-19T04:39:28.065Z,100.00
2023-04-19T04:40:29.896Z,100.00
2023-04-19T04:41:33.205Z,100.00
2023-04-19T04:42:35.649Z,100.00
2023-04-19T04:43:39.644Z,100.00
2023-04-19T04:44:42.173Z,100.00
2023-04-19T04:45:48.302Z,100.00
2023-04-19T04:46:50.997Z,100.00
2023-04-19T04:48:00.277Z,100.00
2023-04-19T04:49:02.170Z,100.00
2023-04-19T04:50:06.011Z,100.00
2023-04-19T04:51:08.927Z,100.00
2023-04-19T04:52:12.289Z,100.00
2023-04-19T04:53:26.997Z,100.00
2023-04-19T04:54:30.500Z,100.00
2023-04-19T04:55:34.276Z,100.00
2023-04-19T04:56:37.355Z,100.00
2023-04-19T04:57:39.558Z,100.00
2023-04-19T04:58:45.617Z,100.00
2023-04-19T04:59:52.491Z,100.00
2023-04-19T05:01:02.904Z,100.00
2023-04-19T05:02:08.096Z,100.00
2023-04-19T05:03:11.274Z,100.00
2023-04-19T05:04:21.748Z,100.00
2023-04-19T05:05:23.788Z,100.00
2023-04-19T05:06:27.243Z,100.00
2023-04-19T05:07:29.457Z,100.00
2023-04-19T05:08:34.841Z,100.00
2023-04-19T05:09:50.423Z,100.00
2023-04-19T05:10:58.765Z,100.00
2023-04-19T05:12:04.781Z,100.00
2023-04-19T05:13:07.637Z,100.00
2023-04-19T05:14:09.890Z,100.00
2023-04-19T05:15:13.024Z,100.00
2023-04-19T05:16:21.554Z,100.00
2023-04-19T05:17:25.591Z,100.00
2023-04-19T05:18:27.541Z,100.00
2023-04-19T05:19:31.139Z,100.00
2023-04-19T05:20:40.461Z,100.00
2023-04-19T05:21:50.547Z,100.00
2023-04-19T05:22:58.289Z,100.00
2023-04-19T05:24:01.138Z,100.00
2023-04-19T05:25:03.254Z,100.00
2023-04-19T05:26:06.588Z,100.00
2023-04-19T05:27:09.473Z,100.00
2023-04-19T05:28:12.249Z,100.00
2023-04-19T05:29:33.125Z,100.00
2023-04-19T05:30:35.027Z,100.00
2023-04-19T05:31:39.465Z,100.00
2023-04-19T05:33:05.304Z,100.00
2023-04-19T05:34:07.605Z,100.00
2023-04-19T05:35:11.293Z,100.00
2023-04-19T05:36:13.171Z,100.00
2023-04-19T05:37:16.238Z,100.00
2023-04-19T05:38:18.764Z,100.00
2023-04-19T05:39:21.664Z,100.00
2023-04-19T05:40:24.315Z,100.00
2023-04-19T05:41:27.657Z,100.00
2023-04-19T05:42:29.484Z,100.00
2023-04-19T05:43:32.695Z,100.00
2023-04-19T05:44:34.883Z,100.00
2023-04-19T05:45:37.969Z,100.00
2023-04-19T05:46:41.537Z,100.00
2023-04-19T05:47:48.388Z,100.00
2023-04-19T05:49:14.298Z,100.00
2023-04-19T05:50:36.334Z,100.00
2023-04-19T05:51:58.252Z,100.00
2023-04-19T05:53:09.611Z,100.00
2023-04-19T05:54:13.736Z,100.00
2023-04-19T05:55:21.994Z,100.00
2023-04-19T05:56:23.921Z,100.00
2023-04-19T05:57:27.063Z,100.00
2023-04-19T05:58:28.976Z,100.00
2023-04-19T05:59:32.143Z,100.00
2023-04-19T06:00:35.081Z,100.00
2023-04-19T06:01:45.019Z,100.00
2023-04-19T06:02:48.447Z,100.00
2023-04-19T06:03:53.455Z,100.00
2023-04-19T06:04:58.408Z,100.00
2023-04-19T06:06:03.516Z,100.00
2023-04-19T06:07:08.176Z,100.00
2023-04-19T06:08:17.640Z,100.00
2023-04-19T06:09:19.616Z,100.00
2023-04-19T06:10:22.540Z,100.00
2023-04-19T06:11:29.195Z,99.88
2023-04-19T06:12:38.455Z,99.41
2023-04-19T06:13:40.375Z,99.47
2023-04-19T06:14:43.248Z,99.50
2023-04-19T06:15:46.194Z,99.45
2023-04-19T06:16:50.930Z,99.81
2023-04-19T06:17:52.786Z,99.58
2023-04-19T06:18:56.253Z,99.06
2023-04-19T06:20:00.990Z,99.45
2023-04-19T06:21:03.011Z,99.30
2023-04-19T06:22:06.070Z,99.74
2023-04-19T06:23:07.898Z,100.00
2023-04-19T06:24:11.124Z,100.00
2023-04-19T06:25:15.034Z,100.00
2023-04-19T06:26:17.802Z,100.00
2023-04-19T06:27:20.572Z,99.50
2023-04-19T06:28:22.414Z,99.83
2023-04-19T06:29:25.750Z,99.68
2023-04-19T06:30:27.558Z,99.01
2023-04-19T06:31:30.874Z,98.94
2023-04-19T06:32:35.105Z,99.23
2023-04-19T06:33:39.037Z,99.28
2023-04-19T06:34:40.922Z,99.51
2023-04-19T06:35:43.689Z,99.91
2023-04-19T06:36:45.549Z,99.53
2023-04-19T06:37:49.445Z,99.37
2023-04-19T06:38:52.677Z,99.09
2023-04-19T06:39:55.573Z,98.23
2023-04-19T06:40:57.409Z,97.81
2023-04-19T06:42:00.232Z,97.20
2023-04-19T06:43:05.882Z,96.63
2023-04-19T06:44:08.941Z,96.60
2023-04-19T06:45:11.853Z,96.33
2023-04-19T06:46:14.699Z,96.45
2023-04-19T06:47:17.071Z,96.14
2023-04-19T06:48:21.186Z,95.93
2023-04-19T06:49:22.968Z,95.18
2023-04-19T06:50:27.053Z,95.39
2023-04-19T06:51:30.397Z,95.79
2023-04-19T06:52:32.210Z,95.19
2023-04-19T06:53:35.601Z,95.04
2023-04-19T06:54:37.453Z,94.95
2023-04-19T06:55:40.629Z,94.68
2023-04-19T06:56:45.675Z,94.31
2023-04-19T06:57:48.612Z,93.97
2023-04-19T06:58:51.386Z,93.67
2023-04-19T06:59:54.352Z,93.82
2023-04-19T07:00:57.643Z,94.08
2023-04-19T07:02:00.532Z,94.04
2023-04-19T07:03:02.987Z,94.35
2023-04-19T07:04:07.722Z,93.55
2023-04-19T07:05:12.816Z,93.60
2023-04-19T07:06:15.690Z,93.84
2023-04-19T07:07:18.462Z,94.20
2023-04-19T07:08:21.240Z,93.98
2023-04-19T07:09:23.161Z,93.47
2023-04-19T07:10:25.990Z,92.97
2023-04-19T07:11:27.809Z,92.87
2023-04-19T07:12:30.622Z,93.18
2023-04-19T07:13:32.486Z,93.08
2023-04-19T07:14:35.254Z,93.45
2023-04-19T07:15:37.417Z,93.89
2023-04-19T07:16:40.269Z,93.45
2023-04-19T07:17:43.063Z,93.63
2023-04-19T07:18:45.002Z,93.52
2023-04-19T07:19:49.967Z,92.79
2023-04-19T07:20:52.717Z,92.83
2023-04-19T07:21:56.039Z,92.35
2023-04-19T07:22:58.202Z,92.07
2023-04-19T07:24:01.134Z,92.02
2023-04-19T07:25:04.397Z,91.73
2023-04-19T07:26:06.464Z,91.63
2023-04-19T07:27:09.801Z,90.89
2023-04-19T07:28:13.024Z,91.05
2023-04-19T07:29:15.821Z,90.64
2023-04-19T07:30:18.610Z,90.53
2023-04-19T07:31:21.715Z,90.10
2023-04-19T07:32:24.624Z,89.41
2023-04-19T07:33:28.391Z,88.81
2023-04-19T07:34:30.424Z,88.81
2023-04-19T07:35:34.738Z,88.74
2023-04-19T07:36:37.984Z,89.21
2023-04-19T07:37:39.838Z,89.83
2023-04-19T07:38:42.580Z,89.66
2023-04-19T07:39:45.345Z,89.51
2023-04-19T07:40:47.386Z,88.80
2023-04-19T07:41:50.224Z,88.43
2023-04-19T07:42:52.160Z,88.47
2023-04-19T07:43:55.194Z,88.59
2023-04-19T07:44:57.062Z,88.90
2023-04-19T07:45:59.926Z,88.84
2023-04-19T07:47:03.002Z,89.52
2023-04-19T07:48:06.591Z,89.72
2023-04-19T07:49:08.403Z,89.88
2023-04-19T07:50:12.466Z,89.54
2023-04-19T07:51:17.818Z,88.98
2023-04-19T07:52:19.792Z,88.89
2023-04-19T07:53:22.997Z,88.44
2023-04-19T07:54:25.864Z,88.27
2023-04-19T07:55:28.741Z,88.37
2023-04-19T07:56:30.834Z,89.46
2023-04-19T07:57:33.666Z,89.68
2023-04-19T07:58:36.873Z,89.79
2023-04-19T07:59:39.062Z,89.37
2023-04-19T08:00:41.833Z,89.14
2023-04-19T08:01:44.998Z,89.04
2023-04-19T08:02:48.826Z,89.32
2023-04-19T08:03:52.396Z,89.62
2023-04-19T08:04:54.610Z,89.48
2023-04-19T08:05:58.052Z,89.01
2023-04-19T08:07:01.240Z,88.49
2023-04-19T08:08:04.019Z,88.67
2023-04-19T08:09:06.114Z,88.84
2023-04-19T08:10:10.221Z,89.13
2023-04-19T08:11:12.985Z,89.46
2023-04-19T08:12:30.316Z,89.58
2023-04-19T08:13:37.866Z,90.28
2023-04-19T08:14:56.231Z,90.59
2023-04-19T08:16:40.269Z,90.67
2023-04-19T08:17:31.550Z,91.27
2023-04-19T08:18:40.366Z,91.23
2023-04-19T08:19:43.192Z,91.03
2023-04-19T08:20:47.207Z,91.04
2023-04-19T08:21:50.072Z,90.15
2023-04-19T08:22:54.108Z,90.09
2023-04-19T08:23:56.868Z,89.80
2023-04-19T08:24:58.784Z,89.89
2023-04-19T08:26:01.555Z,89.61
2023-04-19T08:27:03.458Z,89.58
2023-04-19T08:28:06.591Z,89.53
2023-04-19T08:29:09.419Z,89.68
2023-04-19T08:30:13.131Z,90.59
2023-04-19T08:31:15.946Z,91.04
2023-04-19T08:32:18.829Z,90.51
2023-04-19T08:33:20.722Z,91.04
2023-04-19T08:34:23.551Z,91.11
2023-04-19T08:35:26.800Z,91.12
2023-04-19T08:36:39.025Z,90.92
2023-04-19T08:37:42.201Z,92.06
2023-04-19T08:38:49.183Z,92.52
2023-04-19T08:39:57.698Z,93.22
2023-04-19T08:40:59.765Z,93.20
2023-04-19T08:42:12.544Z,93.96
2023-04-19T08:43:20.893Z,94.61
2023-04-19T08:44:35.478Z,94.85
2023-04-19T08:45:39.606Z,95.06
2023-04-19T08:46:42.987Z,94.44
2023-04-19T08:47:58.683Z,94.37
2023-04-19T08:49:05.908Z,93.21
2023-04-19T08:50:20.589Z,93.60
2023-04-19T08:51:32.955Z,93.30
2023-04-19T08:52:51.760Z,93.75
2023-04-19T08:53:57.769Z,94.01
2023-04-19T08:55:02.674Z,94.15
2023-04-19T08:56:12.670Z,94.15
2023-04-19T08:57:16.873Z,93.75
2023-04-19T08:58:30.592Z,93.95
2023-04-19T08:59:40.655Z,93.93
2023-04-19T09:00:42.489Z,94.08
2023-04-19T09:01:45.640Z,93.45
2023-04-19T09:02:48.786Z,93.42
2023-04-19T09:04:03.429Z,93.74
2023-04-19T09:05:15.947Z,93.94
2023-04-19T09:06:18.016Z,93.42
2023-04-19T09:07:24.827Z,93.54
2023-04-19T09:08:28.923Z,92.67
2023-04-19T09:09:39.092Z,93.31
2023-04-19T09:10:53.754Z,94.00
2023-04-19T09:11:57.201Z,93.12
2023-04-19T09:13:03.014Z,92.63
2023-04-19T09:14:09.933Z,92.27
2023-04-19T09:15:13.470Z,91.99
2023-04-19T09:16:26.064Z,91.81
2023-04-19T09:17:28.005Z,91.34
2023-04-19T09:18:33.109Z,91.92
2023-04-19T09:19:46.677Z,92.38
2023-04-19T09:20:49.586Z,92.47
2023-04-19T09:21:54.213Z,91.87
2023-04-19T09:23:04.683Z,92.32
2023-04-19T09:24:08.627Z,92.78
2023-04-19T09:25:46.483Z,92.30
2023-04-19T09:26:55.608Z,92.33
2023-04-19T09:28:09.132Z,92.60
2023-04-19T09:29:14.891Z,92.47
2023-04-19T09:30:32.338Z,92.19
2023-04-19T09:32:47.980Z,92.57
2023-04-19T09:33:51.108Z,92.40
2023-04-19T09:34:55.735Z,91.71
2023-04-19T09:35:58.842Z,90.86
2023-04-19T09:37:21.321Z,91.36
2023-04-19T09:38:30.908Z,92.57
2023-04-19T09:39:36.056Z,92.16
2023-04-19T09:40:41.592Z,92.46
2023-04-19T09:41:54.012Z,90.84
2023-04-19T09:44:50.179Z,92.08
2023-04-19T09:45:41.833Z,91.87
2023-04-19T09:46:45.611Z,89.70
2023-04-19T09:48:02.309Z,89.75
2023-04-19T09:49:25.131Z,91.01
2023-04-19T09:50:34.007Z,91.50
2023-04-19T09:51:40.701Z,90.47
2023-04-19T09:52:44.195Z,89.97
2023-04-19T09:53:46.973Z,89.38
2023-04-19T09:54:54.056Z,88.13
2023-04-19T09:56:02.063Z,88.52
2023-04-19T09:57:04.875Z,87.88
2023-04-19T09:58:07.722Z,87.28
2023-04-19T09:59:20.281Z,87.17
2023-04-19T10:00:24.405Z,85.92
2023-04-19T10:01:29.549Z,85.31
2023-04-19T10:02:32.469Z,85.24
2023-04-19T10:03:35.680Z,86.10
2023-04-19T10:05:47.185Z,85.50
2023-04-19T10:07:14.017Z,84.88
2023-04-19T10:08:14.651Z,85.25
2023-04-19T10:09:17.928Z,85.49
2023-04-19T10:10:27.626Z,84.84
2023-04-19T10:11:51.253Z,84.24
2023-04-19T10:13:16.178Z,82.67
2023-04-19T10:14:24.475Z,81.18
2023-04-19T10:15:33.901Z,79.70
2023-04-19T10:16:46.284Z,79.23
2023-04-19T10:17:49.528Z,79.52
2023-04-19T10:18:53.336Z,79.40
2023-04-19T10:20:06.896Z,77.83
2023-04-19T10:21:12.079Z,77.87
2023-04-19T10:22:15.152Z,77.79
2023-04-19T10:23:18.553Z,77.13
2023-04-19T10:24:23.232Z,76.92
2023-04-19T10:25:29.827Z,76.78
2023-04-19T10:27:19.809Z,77.22
2023-04-19T10:28:23.781Z,77.05
2023-04-19T10:30:00.201Z,77.25
2023-04-19T10:31:04.597Z,77.47
2023-04-19T10:32:06.848Z,78.29
2023-04-19T10:33:09.746Z,77.30
2023-04-19T10:34:12.706Z,77.87
2023-04-19T10:35:19.960Z,78.02
2023-04-19T10:36:23.348Z,77.72
2023-04-19T10:37:26.236Z,77.63
2023-04-19T10:38:39.726Z,78.07
2023-04-19T10:39:43.507Z,78.03
2023-04-19T10:41:01.643Z,77.90
2023-04-19T10:42:04.645Z,77.99
2023-04-19T10:43:16.352Z,78.09
2023-04-19T10:44:20.567Z,77.86
2023-04-19T10:45:34.774Z,77.47
2023-04-19T10:46:39.919Z,78.19
2023-04-19T10:47:42.107Z,77.95
2023-04-19T10:48:55.099Z,77.90
2023-04-19T10:49:56.984Z,78.17
2023-04-19T10:51:00.675Z,78.20
2023-04-19T10:52:03.517Z,78.18
2023-04-19T10:53:35.071Z,78.16
2023-04-19T10:54:40.008Z,78.44
2023-04-19T10:55:50.540Z,78.77
2023-04-19T10:57:02.037Z,78.87
2023-04-19T10:58:06.340Z,78.82
2023-04-19T10:59:24.120Z,78.69
2023-04-19T11:00:31.514Z,78.91
2023-04-19T11:01:33.974Z,78.84
2023-04-19T11:02:37.003Z,78.66
2023-04-19T11:03:52.178Z,79.38
2023-04-19T11:05:05.447Z,79.52
2023-04-19T11:06:16.892Z,79.33
2023-04-19T11:07:21.365Z,79.54
2023-04-19T11:08:25.629Z,79.80
2023-04-19T11:09:28.869Z,80.00
2023-04-19T11:10:32.136Z,79.69
2023-04-19T11:11:35.208Z,80.10
2023-04-19T11:12:39.408Z,80.00
2023-04-19T11:13:42.130Z,79.92
2023-04-19T11:14:46.601Z,80.37
2023-04-19T11:15:50.753Z,80.32
2023-04-19T11:16:52.652Z,79.68
2023-04-19T11:18:11.510Z,80.00
2023-04-19T11:19:15.597Z,79.99
2023-04-19T11:20:18.645Z,79.78
2023-04-19T11:21:20.667Z,79.61
2023-04-19T11:22:27.929Z,79.55
2023-04-19T11:23:30.724Z,79.61
2023-04-19T11:24:35.282Z,79.18
2023-04-19T11:25:38.052Z,79.22
2023-04-19T11:26:42.626Z,79.01
2023-04-19T11:27:46.331Z,78.84
2023-04-19T11:28:48.180Z,79.14
2023-04-19T11:29:50.939Z,78.94
2023-04-19T11:30:55.444Z,79.17
2023-04-19T11:32:01.040Z,79.17
2023-04-19T11:33:03.886Z,79.49
2023-04-19T11:34:06.282Z,79.78
2023-04-19T11:35:10.258Z,79.57
2023-04-19T11:36:12.765Z,79.72
2023-04-19T11:37:15.625Z,79.30
2023-04-19T11:38:18.598Z,79.48
2023-04-19T11:39:21.926Z,79.58
2023-04-19T11:40:27.010Z,79.85
2023-04-19T11:41:28.894Z,79.96
2023-04-19T11:42:31.751Z,80.09
2023-04-19T11:43:34.753Z,80.08
2023-04-19T11:44:37.324Z,80.09
2023-04-19T11:45:40.505Z,80.20
2023-04-19T11:46:59.014Z,80.27
2023-04-19T11:48:01.107Z,80.11
2023-04-19T11:49:03.923Z,80.43
2023-04-19T11:50:36.564Z,80.63
2023-04-19T11:51:42.629Z,81.00
2023-04-19T11:52:50.424Z,80.89
2023-04-19T11:53:52.493Z,80.82
2023-04-19T11:54:55.436Z,80.97
2023-04-19T11:56:07.091Z,81.24
2023-04-19T11:57:10.121Z,81.35
2023-04-19T11:58:29.002Z,81.52
2023-04-19T11:59:32.434Z,81.45
2023-04-19T12:00:35.214Z,81.48
2023-04-19T12:01:38.255Z,81.82
2023-04-19T12:02:44.803Z,81.68
2023-04-19T12:03:49.021Z,81.79
2023-04-19T12:04:52.143Z,81.59
2023-04-19T12:05:56.959Z,81.91
2023-04-19T12:07:00.927Z,82.21
2023-04-19T12:08:05.277Z,82.28
2023-04-19T12:09:09.238Z,82.36
2023-04-19T12:10:12.660Z,82.71
2023-04-19T12:11:15.917Z,82.74
2023-04-19T12:12:32.924Z,82.80
2023-04-19T12:13:36.440Z,82.87
2023-04-19T12:14:39.245Z,83.00
2023-04-19T12:15:41.929Z,82.98
2023-04-19T12:16:45.545Z,83.33
2023-04-19T12:18:00.456Z,83.44
2023-04-19T12:19:12.033Z,83.35
2023-04-19T12:20:14.781Z,83.51
2023-04-19T12:21:27.185Z,83.64
2023-04-19T12:22:30.050Z,83.75
2023-04-19T12:23:31.892Z,83.89
2023-04-19T12:24:34.705Z,83.75
2023-04-19T12:25:37.514Z,83.94
2023-04-19T12:26:55.847Z,84.02
2023-04-19T12:27:58.350Z,84.09
2023-04-19T12:29:02.832Z,84.30
2023-04-19T12:30:07.011Z,84.20
2023-04-19T12:31:08.875Z,84.40
2023-04-19T12:32:12.982Z,84.11
2023-04-19T12:33:17.342Z,84.29
2023-04-19T12:34:19.500Z,84.27
2023-04-19T12:35:23.309Z,84.63
2023-04-19T12:36:26.383Z,84.56
2023-04-19T12:37:28.173Z,84.66
2023-04-19T12:38:31.004Z,84.89
2023-04-19T12:39:32.876Z,84.88
2023-04-19T12:40:35.640Z,85.02
2023-04-19T12:41:37.528Z,84.96
2023-04-19T12:42:40.350Z,84.82
2023-04-19T12:43:42.132Z,84.91
2023-04-19T12:44:45.485Z,84.77
2023-04-19T12:45:47.274Z,84.51
2023-04-19T12:46:50.134Z,84.72
2023-04-19T12:47:53.210Z,84.95
2023-04-19T12:48:56.418Z,84.88
2023-04-19T12:49:59.265Z,84.98
2023-04-19T12:51:01.545Z,84.89
2023-04-19T12:52:04.355Z,84.85
2023-04-19T12:53:06.794Z,84.81
2023-04-19T12:54:09.620Z,84.90
2023-04-19T12:55:11.543Z,85.28
2023-04-19T12:56:15.835Z,85.35
2023-04-19T12:57:17.998Z,85.32
2023-04-19T12:58:21.324Z,85.13
2023-04-19T12:59:24.225Z,85.17
2023-04-19T13:00:27.166Z,85.14
2023-04-19T13:01:28.972Z,85.42
2023-04-19T13:02:32.022Z,85.41
2023-04-19T13:03:36.621Z,85.06
2023-04-19T13:04:41.329Z,84.93
2023-04-19T13:05:44.549Z,84.95
2023-04-19T13:06:46.651Z,84.81
2023-04-19T13:07:49.512Z,85.09
2023-04-19T13:08:51.363Z,85.50
2023-04-19T13:09:56.028Z,84.94
2023-04-19T13:10:59.756Z,85.40
2023-04-19T13:12:03.082Z,84.87
2023-04-19T13:13:05.977Z,85.14
2023-04-19T13:14:07.791Z,85.13
2023-04-19T13:15:11.568Z,85.22
2023-04-19T13:16:14.473Z,85.10
2023-04-19T13:17:16.317Z,85.19
2023-04-19T13:18:19.265Z,85.21
2023-04-19T13:19:22.637Z,85.51
2023-04-19T13:20:26.754Z,85.14
2023-04-19T13:21:29.575Z,85.47
2023-04-19T13:22:31.412Z,85.56
2023-04-19T13:23:34.394Z,85.79
2023-04-19T13:24:37.145Z,85.86
2023-04-19T13:25:39.050Z,85.72
2023-04-19T13:26:41.897Z,85.85
2023-04-19T13:27:43.768Z,85.47
2023-04-19T13:28:46.754Z,85.58
2023-04-19T13:29:48.564Z,85.58
2023-04-19T13:30:51.577Z,85.59
2023-04-19T13:31:53.633Z,86.09
2023-04-19T13:32:56.444Z,85.81
2023-04-19T13:34:00.491Z,86.14
2023-04-19T13:35:03.334Z,85.79
2023-04-19T13:36:07.435Z,85.83
2023-04-19T13:37:10.255Z,86.39
2023-04-19T13:38:12.087Z,86.29
2023-04-19T13:39:14.867Z,86.16
2023-04-19T13:40:19.303Z,86.16
2023-04-19T13:41:22.642Z,86.42
2023-04-19T13:42:25.618Z,85.93
2023-04-19T13:43:27.484Z,86.06
2023-04-19T13:44:30.754Z,86.17
2023-04-19T13:45:32.573Z,86.20
2023-04-19T13:46:35.416Z,86.26
2023-04-19T13:47:37.676Z,86.07
2023-04-19T13:48:40.527Z,85.99
2023-04-19T13:49:42.323Z,86.36
2023-04-19T13:50:45.721Z,86.36
2023-04-19T13:51:50.942Z,86.37
2023-04-19T13:52:53.187Z,86.59
2023-04-19T13:53:56.373Z,86.18
2023-04-19T13:54:58.134Z,86.55
2023-04-19T13:56:00.916Z,86.41